sensor_id;sensor_type;location;lat;lon;timestamp;temperature;humidity
74153;DHT22;62505;46.070;14.492;2023-10-19T00:00:31;22.40;77.10
74153;DHT22;62505;46.070;14.492;2023-10-19T00:03:00;22.50;77.20
74153;DHT22;62505;46.070;14.492;2023-10-19T00:05:30;22.50;77.30
74153;DHT22;62505;46.070;14.492;2023-10-19T00:07:58;22.40;77.20
74153;DHT22;62505;46.070;14.492;2023-10-19T00:10:26;22.40;77.30
74153;DHT22;62505;46.070;14.492;2023-10-19T00:12:55;22.40;77.30
74153;DHT22;62505;46.070;14.492;2023-10-19T00:15:26;22.50;77.30
74153;DHT22;62505;46.070;14.492;2023-10-19T00:17:56;22.40;77.30
74153;DHT22;62505;46.070;14.492;2023-10-19T00:20:24;22.50;77.40
74153;DHT22;62505;46.070;14.492;2023-10-19T00:22:56;22.40;77.40
74153;DHT22;62505;46.070;14.492;2023-10-19T00:25:24;22.40;77.40
74153;DHT22;62505;46.070;14.492;2023-10-19T00:27:51;22.40;77.40
74153;DHT22;62505;46.070;14.492;2023-10-19T00:30:18;22.40;77.30
74153;DHT22;62505;46.070;14.492;2023-10-19T00:32:49;22.50;77.40
74153;DHT22;62505;46.070;14.492;2023-10-19T00:35:18;22.50;77.40
74153;DHT22;62505;46.070;14.492;2023-10-19T00:37:57;22.50;77.40
74153;DHT22;62505;46.070;14.492;2023-10-19T00:40:50;22.50;77.40
74153;DHT22;62505;46.070;14.492;2023-10-19T00:43:26;22.40;77.40
74153;DHT22;62505;46.070;14.492;2023-10-19T00:45:58;22.40;77.40
74153;DHT22;62505;46.070;14.492;2023-10-19T00:48:27;22.40;77.40
74153;DHT22;62505;46.070;14.492;2023-10-19T00:50:54;22.40;77.50
74153;DHT22;62505;46.070;14.492;2023-10-19T00:53:34;22.40;77.40
74153;DHT22;62505;46.070;14.492;2023-10-19T00:56:02;22.40;77.50
74153;DHT22;62505;46.070;14.492;2023-10-19T00:58:32;22.40;77.40
74153;DHT22;62505;46.070;14.492;2023-10-19T01:01:02;22.40;77.30
74153;DHT22;62505;46.070;14.492;2023-10-19T01:03:33;22.40;77.40
74153;DHT22;62505;46.070;14.492;2023-10-19T01:06:04;22.40;77.40
74153;DHT22;62505;46.070;14.492;2023-10-19T01:08:39;22.40;77.40
74153;DHT22;62505;46.070;14.492;2023-10-19T01:11:09;22.40;77.50
74153;DHT22;62505;46.070;14.492;2023-10-19T01:13:37;22.40;77.40
74153;DHT22;62505;46.070;14.492;2023-10-19T01:16:12;22.40;77.40
74153;DHT22;62505;46.070;14.492;2023-10-19T01:18:46;22.40;77.40
74153;DHT22;62505;46.070;14.492;2023-10-19T01:21:13;22.40;77.40
74153;DHT22;62505;46.070;14.492;2023-10-19T01:23:46;22.40;77.40
74153;DHT22;62505;46.070;14.492;2023-10-19T01:26:14;22.40;77.40
74153;DHT22;62505;46.070;14.492;2023-10-19T01:28:48;22.40;77.50
74153;DHT22;62505;46.070;14.492;2023-10-19T01:31:19;22.40;77.40
74153;DHT22;62505;46.070;14.492;2023-10-19T01:33:56;22.40;77.50
74153;DHT22;62505;46.070;14.492;2023-10-19T01:36:24;22.40;77.50
74153;DHT22;62505;46.070;14.492;2023-10-19T01:38:54;22.40;77.40
74153;DHT22;62505;46.070;14.492;2023-10-19T01:41:21;22.40;77.50
74153;DHT22;62505;46.070;14.492;2023-10-19T01:43:50;22.40;77.50
74153;DHT22;62505;46.070;14.492;2023-10-19T01:46:19;22.40;77.50
74153;DHT22;62505;46.070;14.492;2023-10-19T01:48:52;22.40;77.50
74153;DHT22;62505;46.070;14.492;2023-10-19T01:51:21;22.40;77.50
74153;DHT22;62505;46.070;14.492;2023-10-19T01:53:49;22.40;77.50
74153;DHT22;62505;46.070;14.492;2023-10-19T01:56:17;22.40;77.50
74153;DHT22;62505;46.070;14.492;2023-10-19T01:58:46;22.40;77.50
74153;DHT22;62505;46.070;14.492;2023-10-19T02:01:13;22.40;77.50
74153;DHT22;62505;46.070;14.492;2023-10-19T02:03:54;22.40;77.50
74153;DHT22;62505;46.070;14.492;2023-10-19T02:06:21;22.40;77.50
74153;DHT22;62505;46.070;14.492;2023-10-19T02:08:52;22.40;77.50
74153;DHT22;62505;46.070;14.492;2023-10-19T02:11:24;22.40;77.60
74153;DHT22;62505;46.070;14.492;2023-10-19T02:13:52;22.40;77.50
74153;DHT22;62505;46.070;14.492;2023-10-19T02:16:20;22.40;77.50
74153;DHT22;62505;46.070;14.492;2023-10-19T02:18:49;22.40;77.60
74153;DHT22;62505;46.070;14.492;2023-10-19T02:21:15;22.40;77.60
74153;DHT22;62505;46.070;14.492;2023-10-19T02:23:47;22.40;77.60
74153;DHT22;62505;46.070;14.492;2023-10-19T02:26:16;22.40;77.60
74153;DHT22;62505;46.070;14.492;2023-10-19T02:28:47;22.40;77.70
74153;DHT22;62505;46.070;14.492;2023-10-19T02:31:15;22.40;77.70
74153;DHT22;62505;46.070;14.492;2023-10-19T02:33:44;22.40;77.70
74153;DHT22;62505;46.070;14.492;2023-10-19T02:36:17;22.40;77.70
74153;DHT22;62505;46.070;14.492;2023-10-19T02:38:45;22.40;77.80
74153;DHT22;62505;46.070;14.492;2023-10-19T02:41:16;22.40;77.70
74153;DHT22;62505;46.070;14.492;2023-10-19T02:43:47;22.40;77.70
74153;DHT22;62505;46.070;14.492;2023-10-19T02:46:26;22.40;78.50
74153;DHT22;62505;46.070;14.492;2023-10-19T02:48:52;22.40;77.70
74153;DHT22;62505;46.070;14.492;2023-10-19T02:51:20;22.40;77.80
74153;DHT22;62505;46.070;14.492;2023-10-19T02:53:46;22.40;77.70
74153;DHT22;62505;46.070;14.492;2023-10-19T02:56:14;22.40;77.80
74153;DHT22;62505;46.070;14.492;2023-10-19T02:58:43;22.40;77.70
74153;DHT22;62505;46.070;14.492;2023-10-19T03:01:16;22.40;77.80
74153;DHT22;62505;46.070;14.492;2023-10-19T03:03:47;22.40;77.80
74153;DHT22;62505;46.070;14.492;2023-10-19T03:06:18;22.40;77.80
74153;DHT22;62505;46.070;14.492;2023-10-19T03:08:46;22.40;77.80
74153;DHT22;62505;46.070;14.492;2023-10-19T03:11:13;22.40;77.80
74153;DHT22;62505;46.070;14.492;2023-10-19T03:13:40;22.40;77.80
74153;DHT22;62505;46.070;14.492;2023-10-19T03:16:06;22.40;77.80
74153;DHT22;62505;46.070;14.492;2023-10-19T03:18:36;22.40;77.80
74153;DHT22;62505;46.070;14.492;2023-10-19T03:21:03;22.40;77.80
74153;DHT22;62505;46.070;14.492;2023-10-19T03:23:31;22.40;77.80
74153;DHT22;62505;46.070;14.492;2023-10-19T03:26:00;22.40;77.80
74153;DHT22;62505;46.070;14.492;2023-10-19T03:28:53;22.40;77.80
74153;DHT22;62505;46.070;14.492;2023-10-19T03:31:21;22.40;77.80
74153;DHT22;62505;46.070;14.492;2023-10-19T03:33:50;22.40;77.80
74153;DHT22;62505;46.070;14.492;2023-10-19T03:36:21;22.40;78.60
74153;DHT22;62505;46.070;14.492;2023-10-19T03:38:48;22.40;77.80
74153;DHT22;62505;46.070;14.492;2023-10-19T03:41:17;22.40;77.80
74153;DHT22;62505;46.070;14.492;2023-10-19T03:43:48;22.40;77.80
74153;DHT22;62505;46.070;14.492;2023-10-19T03:46:17;22.40;77.80
74153;DHT22;62505;46.070;14.492;2023-10-19T03:48:56;22.40;77.70
74153;DHT22;62505;46.070;14.492;2023-10-19T03:51:29;22.40;77.80
74153;DHT22;62505;46.070;14.492;2023-10-19T03:54:05;22.40;77.80
74153;DHT22;62505;46.070;14.492;2023-10-19T03:56:46;22.40;77.80
74153;DHT22;62505;46.070;14.492;2023-10-19T03:59:15;22.40;77.80
74153;DHT22;62505;46.070;14.492;2023-10-19T04:01:42;22.40;77.80
74153;DHT22;62505;46.070;14.492;2023-10-19T04:04:11;22.40;77.80
74153;DHT22;62505;46.070;14.492;2023-10-19T04:06:39;22.40;77.70
74153;DHT22;62505;46.070;14.492;2023-10-19T04:09:06;22.40;77.80
74153;DHT22;62505;46.070;14.492;2023-10-19T04:11:35;22.40;77.70
74153;DHT22;62505;46.070;14.492;2023-10-19T04:14:13;22.40;77.70
74153;DHT22;62505;46.070;14.492;2023-10-19T04:16:40;22.40;77.70
74153;DHT22;62505;46.070;14.492;2023-10-19T04:19:09;22.40;77.80
74153;DHT22;62505;46.070;14.492;2023-10-19T04:21:37;22.40;77.70
74153;DHT22;62505;46.070;14.492;2023-10-19T04:24:05;22.40;77.70
74153;DHT22;62505;46.070;14.492;2023-10-19T04:26:33;22.40;77.80
74153;DHT22;62505;46.070;14.492;2023-10-19T04:29:03;22.40;77.80
74153;DHT22;62505;46.070;14.492;2023-10-19T04:31:35;22.40;77.80
74153;DHT22;62505;46.070;14.492;2023-10-19T04:34:03;22.40;77.70
74153;DHT22;62505;46.070;14.492;2023-10-19T04:36:33;22.40;77.70
74153;DHT22;62505;46.070;14.492;2023-10-19T04:39:02;22.40;77.70
74153;DHT22;62505;46.070;14.492;2023-10-19T04:41:29;22.40;77.70
74153;DHT22;62505;46.070;14.492;2023-10-19T04:43:56;22.40;77.70
74153;DHT22;62505;46.070;14.492;2023-10-19T04:46:24;22.40;77.60
74153;DHT22;62505;46.070;14.492;2023-10-19T04:48:51;22.40;77.60
74153;DHT22;62505;46.070;14.492;2023-10-19T04:51:18;22.40;77.60
74153;DHT22;62505;46.070;14.492;2023-10-19T04:53:45;22.40;77.70
74153;DHT22;62505;46.070;14.492;2023-10-19T04:56:13;22.40;77.50
74153;DHT22;62505;46.070;14.492;2023-10-19T04:58:40;22.40;77.60
74153;DHT22;62505;46.070;14.492;2023-10-19T05:04:29;22.50;77.80
74153;DHT22;62505;46.070;14.492;2023-10-19T05:06:56;22.40;77.90
74153;DHT22;62505;46.070;14.492;2023-10-19T05:09:23;22.50;78.30
74153;DHT22;62505;46.070;14.492;2023-10-19T05:11:51;22.50;78.40
74153;DHT22;62505;46.070;14.492;2023-10-19T05:14:18;22.50;79.00
74153;DHT22;62505;46.070;14.492;2023-10-19T05:16:46;22.60;79.10
74153;DHT22;62505;46.070;14.492;2023-10-19T05:19:13;22.60;79.20
74153;DHT22;62505;46.070;14.492;2023-10-19T05:21:40;22.60;79.10
74153;DHT22;62505;46.070;14.492;2023-10-19T05:24:09;22.60;80.10
74153;DHT22;62505;46.070;14.492;2023-10-19T05:26:36;22.60;81.20
74153;DHT22;62505;46.070;14.492;2023-10-19T05:29:04;22.60;82.10
74153;DHT22;62505;46.070;14.492;2023-10-19T05:31:31;22.70;83.40
74153;DHT22;62505;46.070;14.492;2023-10-19T05:33:59;22.70;84.10
74153;DHT22;62505;46.070;14.492;2023-10-19T05:36:26;22.70;83.50
74153;DHT22;62505;46.070;14.492;2023-10-19T05:38:53;22.60;80.60
74153;DHT22;62505;46.070;14.492;2023-10-19T05:41:19;22.60;80.10
74153;DHT22;62505;46.070;14.492;2023-10-19T05:43:47;22.60;80.00
74153;DHT22;62505;46.070;14.492;2023-10-19T05:46:19;22.60;80.80
74153;DHT22;62505;46.070;14.492;2023-10-19T05:48:47;22.60;80.40
74153;DHT22;62505;46.070;14.492;2023-10-19T05:51:15;22.60;80.10
74153;DHT22;62505;46.070;14.492;2023-10-19T05:53:42;22.60;80.30
74153;DHT22;62505;46.070;14.492;2023-10-19T05:56:10;22.50;80.30
74153;DHT22;62505;46.070;14.492;2023-10-19T05:58:37;22.50;80.20
74153;DHT22;62505;46.070;14.492;2023-10-19T06:01:04;22.60;80.20
74153;DHT22;62505;46.070;14.492;2023-10-19T06:03:32;22.60;80.10
74153;DHT22;62505;46.070;14.492;2023-10-19T06:05:59;22.50;79.90
74153;DHT22;62505;46.070;14.492;2023-10-19T06:08:26;22.60;80.00
74153;DHT22;62505;46.070;14.492;2023-10-19T06:10:55;22.60;79.80
74153;DHT22;62505;46.070;14.492;2023-10-19T06:13:22;22.60;79.70
74153;DHT22;62505;46.070;14.492;2023-10-19T06:15:49;22.60;79.70
74153;DHT22;62505;46.070;14.492;2023-10-19T06:18:17;22.60;79.60
74153;DHT22;62505;46.070;14.492;2023-10-19T06:20:45;22.60;79.60
74153;DHT22;62505;46.070;14.492;2023-10-19T06:23:12;22.50;79.50
74153;DHT22;62505;46.070;14.492;2023-10-19T06:25:39;22.50;79.50
74153;DHT22;62505;46.070;14.492;2023-10-19T06:28:08;22.60;79.50
74153;DHT22;62505;46.070;14.492;2023-10-19T06:30:37;22.60;79.50
74153;DHT22;62505;46.070;14.492;2023-10-19T06:33:06;22.50;79.30
74153;DHT22;62505;46.070;14.492;2023-10-19T06:35:33;22.60;80.10
74153;DHT22;62505;46.070;14.492;2023-10-19T06:38:04;22.50;79.20
74153;DHT22;62505;46.070;14.492;2023-10-19T06:40:31;22.60;79.20
74153;DHT22;62505;46.070;14.492;2023-10-19T06:43:00;22.50;79.20
74153;DHT22;62505;46.070;14.492;2023-10-19T06:45:28;22.50;79.20
74153;DHT22;62505;46.070;14.492;2023-10-19T06:47:56;22.50;79.20
74153;DHT22;62505;46.070;14.492;2023-10-19T06:50:24;22.50;79.10
74153;DHT22;62505;46.070;14.492;2023-10-19T06:52:52;22.50;79.10
74153;DHT22;62505;46.070;14.492;2023-10-19T06:55:21;22.60;79.10
74153;DHT22;62505;46.070;14.492;2023-10-19T06:57:50;22.60;79.10
74153;DHT22;62505;46.070;14.492;2023-10-19T07:00:18;22.50;79.00
74153;DHT22;62505;46.070;14.492;2023-10-19T07:02:46;22.50;79.00
74153;DHT22;62505;46.070;14.492;2023-10-19T07:05:14;22.60;79.10
74153;DHT22;62505;46.070;14.492;2023-10-19T07:07:44;22.60;79.00
74153;DHT22;62505;46.070;14.492;2023-10-19T07:10:13;22.60;79.00
74153;DHT22;62505;46.070;14.492;2023-10-19T07:12:46;22.50;79.00
74153;DHT22;62505;46.070;14.492;2023-10-19T07:15:14;22.50;79.10
74153;DHT22;62505;46.070;14.492;2023-10-19T07:17:41;22.50;79.10
74153;DHT22;62505;46.070;14.492;2023-10-19T07:20:09;22.60;79.10
74153;DHT22;62505;46.070;14.492;2023-10-19T07:22:47;22.60;79.00
74153;DHT22;62505;46.070;14.492;2023-10-19T07:25:14;22.60;79.10
74153;DHT22;62505;46.070;14.492;2023-10-19T07:27:48;22.60;79.30
74153;DHT22;62505;46.070;14.492;2023-10-19T07:30:15;22.60;81.80
74153;DHT22;62505;46.070;14.492;2023-10-19T07:32:47;22.60;80.00
74153;DHT22;62505;46.070;14.492;2023-10-19T07:35:17;22.50;80.60
74153;DHT22;62505;46.070;14.492;2023-10-19T07:37:44;22.60;81.20
74153;DHT22;62505;46.070;14.492;2023-10-19T07:40:11;22.60;81.00
74153;DHT22;62505;46.070;14.492;2023-10-19T07:42:39;22.50;81.20
74153;DHT22;62505;46.070;14.492;2023-10-19T07:45:09;22.60;80.60
74153;DHT22;62505;46.070;14.492;2023-10-19T07:47:38;22.60;80.60
74153;DHT22;62505;46.070;14.492;2023-10-19T07:50:07;22.60;80.80
74153;DHT22;62505;46.070;14.492;2023-10-19T07:52:38;22.60;80.60
74153;DHT22;62505;46.070;14.492;2023-10-19T07:55:06;22.60;80.30
74153;DHT22;62505;46.070;14.492;2023-10-19T07:57:33;22.60;80.60
74153;DHT22;62505;46.070;14.492;2023-10-19T08:00:01;22.60;80.20
74153;DHT22;62505;46.070;14.492;2023-10-19T08:02:30;22.60;80.20
74153;DHT22;62505;46.070;14.492;2023-10-19T08:04:59;22.60;80.20
74153;DHT22;62505;46.070;14.492;2023-10-19T08:07:27;22.70;81.40
74153;DHT22;62505;46.070;14.492;2023-10-19T08:09:54;22.70;80.00
74153;DHT22;62505;46.070;14.492;2023-10-19T08:12:26;22.70;79.60
74153;DHT22;62505;46.070;14.492;2023-10-19T08:14:53;22.70;80.70
74153;DHT22;62505;46.070;14.492;2023-10-19T08:17:21;22.70;80.00
74153;DHT22;62505;46.070;14.492;2023-10-19T08:19:50;22.70;80.00
74153;DHT22;62505;46.070;14.492;2023-10-19T08:22:17;22.70;80.00
74153;DHT22;62505;46.070;14.492;2023-10-19T08:24:44;22.70;81.10
74153;DHT22;62505;46.070;14.492;2023-10-19T08:27:12;22.70;80.90
74153;DHT22;62505;46.070;14.492;2023-10-19T08:29:39;22.70;80.20
74153;DHT22;62505;46.070;14.492;2023-10-19T08:32:06;22.70;80.10
74153;DHT22;62505;46.070;14.492;2023-10-19T08:34:34;22.70;80.20
74153;DHT22;62505;46.070;14.492;2023-10-19T08:37:03;22.70;80.10
74153;DHT22;62505;46.070;14.492;2023-10-19T08:39:32;22.70;80.20
74153;DHT22;62505;46.070;14.492;2023-10-19T08:42:02;22.60;79.70
74153;DHT22;62505;46.070;14.492;2023-10-19T08:44:29;22.70;80.50
74153;DHT22;62505;46.070;14.492;2023-10-19T08:46:57;22.70;79.80
74153;DHT22;62505;46.070;14.492;2023-10-19T08:49:25;22.70;79.70
74153;DHT22;62505;46.070;14.492;2023-10-19T08:51:54;22.70;79.70
74153;DHT22;62505;46.070;14.492;2023-10-19T08:54:22;22.70;79.80
74153;DHT22;62505;46.070;14.492;2023-10-19T08:56:49;22.70;79.50
74153;DHT22;62505;46.070;14.492;2023-10-19T08:59:16;22.70;79.60
74153;DHT22;62505;46.070;14.492;2023-10-19T09:01:43;22.70;79.50
74153;DHT22;62505;46.070;14.492;2023-10-19T09:04:10;22.70;79.60
74153;DHT22;62505;46.070;14.492;2023-10-19T09:06:39;22.70;79.80
74153;DHT22;62505;46.070;14.492;2023-10-19T09:09:08;22.70;80.30
74153;DHT22;62505;46.070;14.492;2023-10-19T09:11:43;22.70;79.60
74153;DHT22;62505;46.070;14.492;2023-10-19T09:14:10;22.70;80.10
74153;DHT22;62505;46.070;14.492;2023-10-19T09:16:38;22.70;80.00
74153;DHT22;62505;46.070;14.492;2023-10-19T09:19:20;22.70;79.80
74153;DHT22;62505;46.070;14.492;2023-10-19T09:21:47;22.70;79.60
74153;DHT22;62505;46.070;14.492;2023-10-19T09:24:17;22.70;79.60
74153;DHT22;62505;46.070;14.492;2023-10-19T09:26:45;22.70;79.60
74153;DHT22;62505;46.070;14.492;2023-10-19T09:29:17;22.70;80.00
74153;DHT22;62505;46.070;14.492;2023-10-19T09:31:47;22.70;79.40
74153;DHT22;62505;46.070;14.492;2023-10-19T09:34:15;22.70;79.60
74153;DHT22;62505;46.070;14.492;2023-10-19T09:36:42;22.70;79.40
74153;DHT22;62505;46.070;14.492;2023-10-19T09:39:10;22.70;79.60
74153;DHT22;62505;46.070;14.492;2023-10-19T09:41:38;22.70;79.50
74153;DHT22;62505;46.070;14.492;2023-10-19T09:44:08;22.70;79.70
74153;DHT22;62505;46.070;14.492;2023-10-19T09:46:39;22.70;79.30
74153;DHT22;62505;46.070;14.492;2023-10-19T09:49:07;22.70;79.60
74153;DHT22;62505;46.070;14.492;2023-10-19T09:51:37;22.70;79.60
74153;DHT22;62505;46.070;14.492;2023-10-19T09:54:11;22.70;79.60
74153;DHT22;62505;46.070;14.492;2023-10-19T09:56:43;22.70;79.70
74153;DHT22;62505;46.070;14.492;2023-10-19T09:59:23;22.70;79.70
74153;DHT22;62505;46.070;14.492;2023-10-19T10:02:07;22.70;79.60
74153;DHT22;62505;46.070;14.492;2023-10-19T10:04:36;22.70;79.70
74153;DHT22;62505;46.070;14.492;2023-10-19T10:07:05;22.60;79.60
74153;DHT22;62505;46.070;14.492;2023-10-19T10:09:35;22.70;79.60
74153;DHT22;62505;46.070;14.492;2023-10-19T10:12:16;22.70;79.60
74153;DHT22;62505;46.070;14.492;2023-10-19T10:14:55;22.70;79.60
74153;DHT22;62505;46.070;14.492;2023-10-19T10:17:24;22.60;79.60
74153;DHT22;62505;46.070;14.492;2023-10-19T10:19:54;22.60;79.60
74153;DHT22;62505;46.070;14.492;2023-10-19T10:22:23;22.60;79.60
74153;DHT22;62505;46.070;14.492;2023-10-19T10:24:54;22.60;79.70
74153;DHT22;62505;46.070;14.492;2023-10-19T10:27:22;22.60;79.60
74153;DHT22;62505;46.070;14.492;2023-10-19T10:29:58;22.60;79.60
74153;DHT22;62505;46.070;14.492;2023-10-19T10:32:44;22.60;79.70
74153;DHT22;62505;46.070;14.492;2023-10-19T10:35:55;22.60;79.70
74153;DHT22;62505;46.070;14.492;2023-10-19T10:38:22;22.60;79.70
74153;DHT22;62505;46.070;14.492;2023-10-19T10:40:50;22.60;79.70
74153;DHT22;62505;46.070;14.492;2023-10-19T10:43:18;22.60;79.70
74153;DHT22;62505;46.070;14.492;2023-10-19T10:45:47;22.60;79.70
74153;DHT22;62505;46.070;14.492;2023-10-19T10:48:14;22.60;79.70
74153;DHT22;62505;46.070;14.492;2023-10-19T10:50:41;22.60;79.70
74153;DHT22;62505;46.070;14.492;2023-10-19T10:53:10;22.60;79.70
74153;DHT22;62505;46.070;14.492;2023-10-19T10:55:38;22.60;79.70
74153;DHT22;62505;46.070;14.492;2023-10-19T10:58:05;22.60;79.70
74153;DHT22;62505;46.070;14.492;2023-10-19T11:00:31;22.60;79.70
74153;DHT22;62505;46.070;14.492;2023-10-19T11:03:01;22.60;79.60
74153;DHT22;62505;46.070;14.492;2023-10-19T11:05:29;22.60;79.60
74153;DHT22;62505;46.070;14.492;2023-10-19T11:08:05;22.60;79.60
74153;DHT22;62505;46.070;14.492;2023-10-19T11:10:34;22.60;79.60
74153;DHT22;62505;46.070;14.492;2023-10-19T11:13:02;22.60;79.60
74153;DHT22;62505;46.070;14.492;2023-10-19T11:15:29;22.60;79.60
74153;DHT22;62505;46.070;14.492;2023-10-19T11:17:56;22.60;79.60
74153;DHT22;62505;46.070;14.492;2023-10-19T11:20:24;22.60;79.60
74153;DHT22;62505;46.070;14.492;2023-10-19T11:22:54;22.60;79.60
74153;DHT22;62505;46.070;14.492;2023-10-19T11:25:24;22.60;79.60
74153;DHT22;62505;46.070;14.492;2023-10-19T11:27:55;22.60;79.60
74153;DHT22;62505;46.070;14.492;2023-10-19T11:30:27;22.50;79.50
74153;DHT22;62505;46.070;14.492;2023-10-19T11:32:54;22.50;79.50
74153;DHT22;62505;46.070;14.492;2023-10-19T11:35:24;22.60;79.60
74153;DHT22;62505;46.070;14.492;2023-10-19T11:37:54;22.60;79.60
74153;DHT22;62505;46.070;14.492;2023-10-19T11:40:22;22.50;79.50
74153;DHT22;62505;46.070;14.492;2023-10-19T11:42:51;22.60;79.60
74153;DHT22;62505;46.070;14.492;2023-10-19T11:45:20;22.60;79.60
74153;DHT22;62505;46.070;14.492;2023-10-19T11:47:46;22.50;79.60
74153;DHT22;62505;46.070;14.492;2023-10-19T11:50:14;22.60;79.60
74153;DHT22;62505;46.070;14.492;2023-10-19T11:52:42;22.60;79.60
74153;DHT22;62505;46.070;14.492;2023-10-19T11:55:09;22.50;79.50
74153;DHT22;62505;46.070;14.492;2023-10-19T11:57:39;22.60;79.60
74153;DHT22;62505;46.070;14.492;2023-10-19T12:00:06;22.50;79.60
74153;DHT22;62505;46.070;14.492;2023-10-19T12:02:37;22.50;79.60
74153;DHT22;62505;46.070;14.492;2023-10-19T12:05:05;22.50;79.60
74153;DHT22;62505;46.070;14.492;2023-10-19T12:07:36;22.60;79.70
74153;DHT22;62505;46.070;14.492;2023-10-19T12:10:04;22.60;79.70
74153;DHT22;62505;46.070;14.492;2023-10-19T12:12:31;22.50;80.40
74153;DHT22;62505;46.070;14.492;2023-10-19T12:14:58;22.50;79.60
74153;DHT22;62505;46.070;14.492;2023-10-19T12:17:28;22.50;79.70
74153;DHT22;62505;46.070;14.492;2023-10-19T12:19:57;22.50;79.60
74153;DHT22;62505;46.070;14.492;2023-10-19T12:22:27;22.50;79.60
74153;DHT22;62505;46.070;14.492;2023-10-19T12:24:58;22.50;79.60
74153;DHT22;62505;46.070;14.492;2023-10-19T12:27:25;22.50;79.70
74153;DHT22;62505;46.070;14.492;2023-10-19T12:29:52;22.50;79.70
74153;DHT22;62505;46.070;14.492;2023-10-19T12:32:20;22.50;79.70
74153;DHT22;62505;46.070;14.492;2023-10-19T12:34:48;22.50;79.70
74153;DHT22;62505;46.070;14.492;2023-10-19T12:37:20;22.50;79.70
74153;DHT22;62505;46.070;14.492;2023-10-19T12:39:46;22.50;79.70
74153;DHT22;62505;46.070;14.492;2023-10-19T12:42:14;22.50;79.70
74153;DHT22;62505;46.070;14.492;2023-10-19T12:44:41;22.50;79.70
74153;DHT22;62505;46.070;14.492;2023-10-19T12:47:09;22.50;79.60
74153;DHT22;62505;46.070;14.492;2023-10-19T12:49:38;22.50;79.70
74153;DHT22;62505;46.070;14.492;2023-10-19T12:52:06;22.50;79.70
74153;DHT22;62505;46.070;14.492;2023-10-19T12:54:35;22.50;79.80
74153;DHT22;62505;46.070;14.492;2023-10-19T12:57:03;22.50;79.70
74153;DHT22;62505;46.070;14.492;2023-10-19T12:59:32;22.50;79.80
74153;DHT22;62505;46.070;14.492;2023-10-19T13:01:59;22.50;79.80
74153;DHT22;62505;46.070;14.492;2023-10-19T13:04:28;22.50;79.80
74153;DHT22;62505;46.070;14.492;2023-10-19T13:06:57;22.50;79.80
74153;DHT22;62505;46.070;14.492;2023-10-19T13:09:24;22.50;79.80
74153;DHT22;62505;46.070;14.492;2023-10-19T13:11:58;22.50;79.80
74153;DHT22;62505;46.070;14.492;2023-10-19T13:14:25;22.50;79.80
74153;DHT22;62505;46.070;14.492;2023-10-19T13:16:53;22.50;79.80
74153;DHT22;62505;46.070;14.492;2023-10-19T13:19:20;22.50;79.80
74153;DHT22;62505;46.070;14.492;2023-10-19T13:21:50;22.50;79.80
74153;DHT22;62505;46.070;14.492;2023-10-19T13:24:18;22.50;79.80
74153;DHT22;62505;46.070;14.492;2023-10-19T13:26:46;22.50;79.80
74153;DHT22;62505;46.070;14.492;2023-10-19T13:29:14;22.50;79.80
74153;DHT22;62505;46.070;14.492;2023-10-19T13:31:42;22.50;79.70
74153;DHT22;62505;46.070;14.492;2023-10-19T13:34:15;22.50;79.70
74153;DHT22;62505;46.070;14.492;2023-10-19T13:36:41;22.50;79.70
74153;DHT22;62505;46.070;14.492;2023-10-19T13:39:10;22.50;80.50
74153;DHT22;62505;46.070;14.492;2023-10-19T13:41:42;22.50;79.70
74153;DHT22;62505;46.070;14.492;2023-10-19T13:44:09;22.50;79.80
74153;DHT22;62505;46.070;14.492;2023-10-19T13:46:38;22.50;79.80
74153;DHT22;62505;46.070;14.492;2023-10-19T13:49:05;22.50;79.80
74153;DHT22;62505;46.070;14.492;2023-10-19T13:51:35;22.50;79.80
74153;DHT22;62505;46.070;14.492;2023-10-19T13:54:02;22.50;79.80
74153;DHT22;62505;46.070;14.492;2023-10-19T13:56:29;22.50;79.80
74153;DHT22;62505;46.070;14.492;2023-10-19T13:58:56;22.50;79.80
74153;DHT22;62505;46.070;14.492;2023-10-19T14:01:23;22.50;80.10
74153;DHT22;62505;46.070;14.492;2023-10-19T14:03:55;22.50;79.90
74153;DHT22;62505;46.070;14.492;2023-10-19T14:06:22;22.50;79.80
74153;DHT22;62505;46.070;14.492;2023-10-19T14:08:50;22.50;80.00
74153;DHT22;62505;46.070;14.492;2023-10-19T14:11:18;22.50;80.00
74153;DHT22;62505;46.070;14.492;2023-10-19T14:13:45;22.50;79.90
74153;DHT22;62505;46.070;14.492;2023-10-19T14:16:12;22.50;79.90
74153;DHT22;62505;46.070;14.492;2023-10-19T14:18:39;22.50;79.80
74153;DHT22;62505;46.070;14.492;2023-10-19T14:21:14;22.50;80.80
74153;DHT22;62505;46.070;14.492;2023-10-19T14:23:42;22.50;79.80
74153;DHT22;62505;46.070;14.492;2023-10-19T14:26:10;22.50;80.60
74153;DHT22;62505;46.070;14.492;2023-10-19T14:28:37;22.50;79.80
74153;DHT22;62505;46.070;14.492;2023-10-19T14:31:06;22.50;79.80
74153;DHT22;62505;46.070;14.492;2023-10-19T14:33:34;22.50;79.80
74153;DHT22;62505;46.070;14.492;2023-10-19T14:36:02;22.50;79.70
74153;DHT22;62505;46.070;14.492;2023-10-19T14:38:31;22.50;79.80
74153;DHT22;62505;46.070;14.492;2023-10-19T14:40:58;22.50;79.70
74153;DHT22;62505;46.070;14.492;2023-10-19T14:43:25;22.50;79.70
74153;DHT22;62505;46.070;14.492;2023-10-19T14:45:54;22.50;79.80
74153;DHT22;62505;46.070;14.492;2023-10-19T14:48:22;22.50;79.80
74153;DHT22;62505;46.070;14.492;2023-10-19T14:50:49;22.50;79.70
74153;DHT22;62505;46.070;14.492;2023-10-19T14:53:17;22.50;79.70
74153;DHT22;62505;46.070;14.492;2023-10-19T14:55:45;22.50;79.70
74153;DHT22;62505;46.070;14.492;2023-10-19T14:58:12;22.50;79.80
74153;DHT22;62505;46.070;14.492;2023-10-19T15:00:39;22.50;79.70
74153;DHT22;62505;46.070;14.492;2023-10-19T15:03:10;22.50;79.70
74153;DHT22;62505;46.070;14.492;2023-10-19T15:05:37;22.50;79.70
74153;DHT22;62505;46.070;14.492;2023-10-19T15:08:06;22.50;79.70
74153;DHT22;62505;46.070;14.492;2023-10-19T15:10:36;22.50;79.70
74153;DHT22;62505;46.070;14.492;2023-10-19T15:13:08;22.50;79.70
74153;DHT22;62505;46.070;14.492;2023-10-19T15:15:35;22.50;79.70
74153;DHT22;62505;46.070;14.492;2023-10-19T15:18:02;22.50;79.70
74153;DHT22;62505;46.070;14.492;2023-10-19T15:20:30;22.50;79.60
74153;DHT22;62505;46.070;14.492;2023-10-19T15:22:59;22.50;79.70
74153;DHT22;62505;46.070;14.492;2023-10-19T15:25:26;22.40;79.60
74153;DHT22;62505;46.070;14.492;2023-10-19T15:27:53;22.50;79.60
74153;DHT22;62505;46.070;14.492;2023-10-19T15:30:21;22.50;79.60